sensor_id;sensor_type;location;lat;lon;timestamp;temperature;humidity
80232;DHT22;69541;42.138;24.742;2023-05-07T00:00:37;24.20;35.70
80232;DHT22;69541;42.138;24.742;2023-05-07T00:03:03;24.20;35.70
80232;DHT22;69541;42.138;24.742;2023-05-07T00:05:29;24.20;35.80
80232;DHT22;69541;42.138;24.742;2023-05-07T00:07:55;24.20;35.70
80232;DHT22;69541;42.138;24.742;2023-05-07T00:10:20;24.20;35.80
80232;DHT22;69541;42.138;24.742;2023-05-07T00:12:46;24.20;35.70
80232;DHT22;69541;42.138;24.742;2023-05-07T00:15:12;24.20;35.70
80232;DHT22;69541;42.138;24.742;2023-05-07T00:17:37;24.20;35.70
80232;DHT22;69541;42.138;24.742;2023-05-07T00:20:04;24.20;35.80
80232;DHT22;69541;42.138;24.742;2023-05-07T00:22:31;24.20;35.70
80232;DHT22;69541;42.138;24.742;2023-05-07T00:24:57;24.20;35.70
80232;DHT22;69541;42.138;24.742;2023-05-07T00:27:24;24.20;35.80
80232;DHT22;69541;42.138;24.742;2023-05-07T00:29:49;24.20;35.70
80232;DHT22;69541;42.138;24.742;2023-05-07T00:32:15;24.20;35.70
80232;DHT22;69541;42.138;24.742;2023-05-07T00:34:41;24.20;35.70
80232;DHT22;69541;42.138;24.742;2023-05-07T00:37:06;24.20;35.80
80232;DHT22;69541;42.138;24.742;2023-05-07T00:39:35;24.20;35.80
80232;DHT22;69541;42.138;24.742;2023-05-07T00:42:01;24.20;35.70
80232;DHT22;69541;42.138;24.742;2023-05-07T00:44:28;24.20;35.80
80232;DHT22;69541;42.138;24.742;2023-05-07T00:46:54;24.20;35.80
80232;DHT22;69541;42.138;24.742;2023-05-07T00:49:20;24.20;35.80
80232;DHT22;69541;42.138;24.742;2023-05-07T00:51:46;24.20;35.80
80232;DHT22;69541;42.138;24.742;2023-05-07T00:54:13;24.20;35.80
80232;DHT22;69541;42.138;24.742;2023-05-07T00:56:39;24.20;35.80
80232;DHT22;69541;42.138;24.742;2023-05-07T00:59:05;24.20;35.80
80232;DHT22;69541;42.138;24.742;2023-05-07T01:01:31;24.20;35.80
80232;DHT22;69541;42.138;24.742;2023-05-07T01:03:57;24.20;35.80
80232;DHT22;69541;42.138;24.742;2023-05-07T01:06:24;24.20;35.80
80232;DHT22;69541;42.138;24.742;2023-05-07T01:08:53;24.20;35.80
80232;DHT22;69541;42.138;24.742;2023-05-07T01:11:22;24.20;35.80
80232;DHT22;69541;42.138;24.742;2023-05-07T01:13:49;24.10;35.80
80232;DHT22;69541;42.138;24.742;2023-05-07T01:16:15;24.20;37.00
80232;DHT22;69541;42.138;24.742;2023-05-07T01:18:41;24.20;35.80
80232;DHT22;69541;42.138;24.742;2023-05-07T01:21:08;24.10;35.80
80232;DHT22;69541;42.138;24.742;2023-05-07T01:23:36;24.10;35.80
80232;DHT22;69541;42.138;24.742;2023-05-07T01:26:02;24.20;35.80
80232;DHT22;69541;42.138;24.742;2023-05-07T01:28:28;24.10;35.80
80232;DHT22;69541;42.138;24.742;2023-05-07T01:30:56;24.20;35.80
80232;DHT22;69541;42.138;24.742;2023-05-07T01:33:24;24.20;35.80
80232;DHT22;69541;42.138;24.742;2023-05-07T01:35:53;24.10;35.80
80232;DHT22;69541;42.138;24.742;2023-05-07T01:38:20;24.10;35.80
80232;DHT22;69541;42.138;24.742;2023-05-07T01:40:47;24.20;35.80
80232;DHT22;69541;42.138;24.742;2023-05-07T01:43:13;24.20;35.80
80232;DHT22;69541;42.138;24.742;2023-05-07T01:45:39;24.10;35.80
80232;DHT22;69541;42.138;24.742;2023-05-07T01:48:07;24.20;35.80
80232;DHT22;69541;42.138;24.742;2023-05-07T01:50:33;24.10;35.80
80232;DHT22;69541;42.138;24.742;2023-05-07T01:53:01;24.10;35.80
80232;DHT22;69541;42.138;24.742;2023-05-07T01:55:27;24.10;35.80
80232;DHT22;69541;42.138;24.742;2023-05-07T01:57:53;24.20;35.80
80232;DHT22;69541;42.138;24.742;2023-05-07T02:00:19;24.20;35.80
80232;DHT22;69541;42.138;24.742;2023-05-07T02:02:45;24.10;35.80
80232;DHT22;69541;42.138;24.742;2023-05-07T02:05:10;24.20;35.80
80232;DHT22;69541;42.138;24.742;2023-05-07T02:07:36;24.20;35.90
80232;DHT22;69541;42.138;24.742;2023-05-07T02:10:02;24.10;35.80
80232;DHT22;69541;42.138;24.742;2023-05-07T02:12:28;24.20;35.80
80232;DHT22;69541;42.138;24.742;2023-05-07T02:14:54;24.10;35.80
80232;DHT22;69541;42.138;24.742;2023-05-07T02:17:19;24.10;35.80
80232;DHT22;69541;42.138;24.742;2023-05-07T02:19:45;24.20;35.80
80232;DHT22;69541;42.138;24.742;2023-05-07T02:22:11;24.20;35.80
80232;DHT22;69541;42.138;24.742;2023-05-07T02:24:36;24.10;35.80
80232;DHT22;69541;42.138;24.742;2023-05-07T02:27:02;24.10;35.80
80232;DHT22;69541;42.138;24.742;2023-05-07T02:29:28;24.10;35.90
80232;DHT22;69541;42.138;24.742;2023-05-07T02:31:54;24.20;35.90
80232;DHT22;69541;42.138;24.742;2023-05-07T02:34:20;24.10;35.90
80232;DHT22;69541;42.138;24.742;2023-05-07T02:36:46;24.10;35.80
80232;DHT22;69541;42.138;24.742;2023-05-07T02:39:13;24.20;35.90
80232;DHT22;69541;42.138;24.742;2023-05-07T02:41:39;24.10;35.80
80232;DHT22;69541;42.138;24.742;2023-05-07T02:44:05;24.10;35.80
80232;DHT22;69541;42.138;24.742;2023-05-07T02:46:30;24.10;35.80
80232;DHT22;69541;42.138;24.742;2023-05-07T02:48:56;24.10;35.90
80232;DHT22;69541;42.138;24.742;2023-05-07T02:51:22;24.10;35.90
80232;DHT22;69541;42.138;24.742;2023-05-07T02:53:48;24.10;35.90
80232;DHT22;69541;42.138;24.742;2023-05-07T02:56:14;24.10;35.90
80232;DHT22;69541;42.138;24.742;2023-05-07T02:58:40;24.10;35.90
80232;DHT22;69541;42.138;24.742;2023-05-07T03:01:06;24.10;35.80
80232;DHT22;69541;42.138;24.742;2023-05-07T03:03:32;24.10;35.80
80232;DHT22;69541;42.138;24.742;2023-05-07T03:05:57;24.10;35.90
80232;DHT22;69541;42.138;24.742;2023-05-07T03:08:23;24.10;35.90
80232;DHT22;69541;42.138;24.742;2023-05-07T03:10:49;24.10;36.00
80232;DHT22;69541;42.138;24.742;2023-05-07T03:13:15;24.10;35.90
80232;DHT22;69541;42.138;24.742;2023-05-07T03:15:40;24.10;35.90
80232;DHT22;69541;42.138;24.742;2023-05-07T03:18:06;24.10;35.90
80232;DHT22;69541;42.138;24.742;2023-05-07T03:20:32;24.10;35.90
80232;DHT22;69541;42.138;24.742;2023-05-07T03:22:57;24.10;36.00
80232;DHT22;69541;42.138;24.742;2023-05-07T03:25:23;24.10;35.90
80232;DHT22;69541;42.138;24.742;2023-05-07T03:27:49;24.10;35.90
80232;DHT22;69541;42.138;24.742;2023-05-07T03:30:14;24.10;36.00
80232;DHT22;69541;42.138;24.742;2023-05-07T03:32:40;24.10;36.00
80232;DHT22;69541;42.138;24.742;2023-05-07T03:35:06;24.10;35.90
80232;DHT22;69541;42.138;24.742;2023-05-07T03:37:32;24.10;36.00
80232;DHT22;69541;42.138;24.742;2023-05-07T03:39:58;24.10;36.00
80232;DHT22;69541;42.138;24.742;2023-05-07T03:42:25;24.10;36.00
80232;DHT22;69541;42.138;24.742;2023-05-07T03:44:50;24.10;36.10
80232;DHT22;69541;42.138;24.742;2023-05-07T03:47:16;24.10;36.00
80232;DHT22;69541;42.138;24.742;2023-05-07T03:49:41;24.10;36.00
80232;DHT22;69541;42.138;24.742;2023-05-07T03:52:07;24.10;36.00
80232;DHT22;69541;42.138;24.742;2023-05-07T03:54:33;24.10;36.00
80232;DHT22;69541;42.138;24.742;2023-05-07T03:56:58;24.10;36.10
80232;DHT22;69541;42.138;24.742;2023-05-07T03:59:24;24.10;36.00
80232;DHT22;69541;42.138;24.742;2023-05-07T04:01:50;24.10;36.10
80232;DHT22;69541;42.138;24.742;2023-05-07T04:04:15;24.10;36.00
80232;DHT22;69541;42.138;24.742;2023-05-07T04:06:41;24.10;36.10
80232;DHT22;69541;42.138;24.742;2023-05-07T04:09:07;24.10;36.00
80232;DHT22;69541;42.138;24.742;2023-05-07T04:11:32;24.10;36.00
80232;DHT22;69541;42.138;24.742;2023-05-07T04:13:58;24.10;36.00
80232;DHT22;69541;42.138;24.742;2023-05-07T04:16:24;24.00;36.00
80232;DHT22;69541;42.138;24.742;2023-05-07T04:18:49;24.10;36.10
80232;DHT22;69541;42.138;24.742;2023-05-07T04:21:19;24.10;36.10
80232;DHT22;69541;42.138;24.742;2023-05-07T04:23:48;24.10;36.10
80232;DHT22;69541;42.138;24.742;2023-05-07T04:26:15;24.10;36.10
80232;DHT22;69541;42.138;24.742;2023-05-07T04:28:41;24.10;36.10
80232;DHT22;69541;42.138;24.742;2023-05-07T04:31:07;24.00;36.00
80232;DHT22;69541;42.138;24.742;2023-05-07T04:33:33;24.10;36.10
80232;DHT22;69541;42.138;24.742;2023-05-07T04:36:01;24.10;36.10
80232;DHT22;69541;42.138;24.742;2023-05-07T04:38:29;24.10;36.10
80232;DHT22;69541;42.138;24.742;2023-05-07T04:40:55;24.10;36.10
80232;DHT22;69541;42.138;24.742;2023-05-07T04:43:22;24.10;36.10
80232;DHT22;69541;42.138;24.742;2023-05-07T04:45:47;24.10;36.10
80232;DHT22;69541;42.138;24.742;2023-05-07T04:48:14;24.10;36.10
80232;DHT22;69541;42.138;24.742;2023-05-07T04:50:41;24.10;36.10
80232;DHT22;69541;42.138;24.742;2023-05-07T04:53:07;24.10;36.10
80232;DHT22;69541;42.138;24.742;2023-05-07T04:55:32;24.10;36.10
80232;DHT22;69541;42.138;24.742;2023-05-07T04:57:58;24.00;36.00
80232;DHT22;69541;42.138;24.742;2023-05-07T05:00:23;24.00;36.10
80232;DHT22;69541;42.138;24.742;2023-05-07T05:02:50;24.10;36.10
80232;DHT22;69541;42.138;24.742;2023-05-07T05:05:16;24.00;36.10
80232;DHT22;69541;42.138;24.742;2023-05-07T05:07:41;24.10;36.10
80232;DHT22;69541;42.138;24.742;2023-05-07T05:10:07;24.10;36.10
80232;DHT22;69541;42.138;24.742;2023-05-07T05:12:33;24.10;36.10
80232;DHT22;69541;42.138;24.742;2023-05-07T05:14:58;24.10;36.10
80232;DHT22;69541;42.138;24.742;2023-05-07T05:17:24;24.10;36.10
80232;DHT22;69541;42.138;24.742;2023-05-07T05:19:49;24.10;36.10
80232;DHT22;69541;42.138;24.742;2023-05-07T05:22:16;24.10;36.10
80232;DHT22;69541;42.138;24.742;2023-05-07T05:24:41;24.10;36.10
80232;DHT22;69541;42.138;24.742;2023-05-07T05:27:07;24.10;36.10
80232;DHT22;69541;42.138;24.742;2023-05-07T05:29:33;24.10;36.10
80232;DHT22;69541;42.138;24.742;2023-05-07T05:31:59;24.10;36.10
80232;DHT22;69541;42.138;24.742;2023-05-07T05:34:24;24.10;36.10
80232;DHT22;69541;42.138;24.742;2023-05-07T05:36:50;24.10;36.00
80232;DHT22;69541;42.138;24.742;2023-05-07T05:39:16;24.10;36.10
80232;DHT22;69541;42.138;24.742;2023-05-07T05:41:42;24.10;36.10
80232;DHT22;69541;42.138;24.742;2023-05-07T05:44:07;24.10;36.10
80232;DHT22;69541;42.138;24.742;2023-05-07T05:46:33;24.10;36.00
80232;DHT22;69541;42.138;24.742;2023-05-07T05:48:58;24.10;36.10
80232;DHT22;69541;42.138;24.742;2023-05-07T05:51:24;24.10;36.10
80232;DHT22;69541;42.138;24.742;2023-05-07T05:53:50;24.10;36.10
80232;DHT22;69541;42.138;24.742;2023-05-07T05:56:16;24.10;36.00
80232;DHT22;69541;42.138;24.742;2023-05-07T05:58:41;24.10;37.20
80232;DHT22;69541;42.138;24.742;2023-05-07T06:01:07;24.10;36.00
80232;DHT22;69541;42.138;24.742;2023-05-07T06:03:33;24.10;36.00
80232;DHT22;69541;42.138;24.742;2023-05-07T06:05:59;24.10;37.10
80232;DHT22;69541;42.138;24.742;2023-05-07T06:08:28;24.10;36.00
80232;DHT22;69541;42.138;24.742;2023-05-07T06:10:54;24.10;36.00
80232;DHT22;69541;42.138;24.742;2023-05-07T06:13:20;24.10;36.00
80232;DHT22;69541;42.138;24.742;2023-05-07T06:15:46;24.10;36.00
80232;DHT22;69541;42.138;24.742;2023-05-07T06:18:11;24.10;36.00
80232;DHT22;69541;42.138;24.742;2023-05-07T06:20:37;24.10;36.30
80232;DHT22;69541;42.138;24.742;2023-05-07T06:23:02;24.10;36.00
80232;DHT22;69541;42.138;24.742;2023-05-07T06:25:28;24.10;36.00
80232;DHT22;69541;42.138;24.742;2023-05-07T06:27:54;24.10;36.00
80232;DHT22;69541;42.138;24.742;2023-05-07T06:30:19;24.10;36.00
80232;DHT22;69541;42.138;24.742;2023-05-07T06:32:45;24.10;36.00
80232;DHT22;69541;42.138;24.742;2023-05-07T06:35:10;24.10;36.00
80232;DHT22;69541;42.138;24.742;2023-05-07T06:37:36;24.10;36.00
80232;DHT22;69541;42.138;24.742;2023-05-07T06:40:05;24.10;36.00
80232;DHT22;69541;42.138;24.742;2023-05-07T06:42:32;24.10;36.00
80232;DHT22;69541;42.138;24.742;2023-05-07T06:44:58;24.10;36.00
80232;DHT22;69541;42.138;24.742;2023-05-07T06:47:23;24.10;35.90
80232;DHT22;69541;42.138;24.742;2023-05-07T06:49:49;24.10;35.90
80232;DHT22;69541;42.138;24.742;2023-05-07T06:52:15;24.10;35.90
80232;DHT22;69541;42.138;24.742;2023-05-07T06:54:40;24.10;36.00
80232;DHT22;69541;42.138;24.742;2023-05-07T06:57:06;24.10;36.00
80232;DHT22;69541;42.138;24.742;2023-05-07T06:59:32;24.10;36.00
80232;DHT22;69541;42.138;24.742;2023-05-07T07:01:58;24.10;36.00
80232;DHT22;69541;42.138;24.742;2023-05-07T07:04:23;24.10;36.00
80232;DHT22;69541;42.138;24.742;2023-05-07T07:06:52;24.10;36.00
80232;DHT22;69541;42.138;24.742;2023-05-07T07:09:18;24.10;35.90
80232;DHT22;69541;42.138;24.742;2023-05-07T07:11:44;24.10;35.90
80232;DHT22;69541;42.138;24.742;2023-05-07T07:14:09;24.10;35.90
80232;DHT22;69541;42.138;24.742;2023-05-07T07:16:35;24.10;35.90
80232;DHT22;69541;42.138;24.742;2023-05-07T07:19:00;24.20;36.00
80232;DHT22;69541;42.138;24.742;2023-05-07T07:21:26;24.10;35.90
80232;DHT22;69541;42.138;24.742;2023-05-07T07:23:52;24.10;35.90
80232;DHT22;69541;42.138;24.742;2023-05-07T07:26:18;24.20;36.00
80232;DHT22;69541;42.138;24.742;2023-05-07T07:28:47;24.10;35.90
80232;DHT22;69541;42.138;24.742;2023-05-07T07:31:13;24.10;35.80
80232;DHT22;69541;42.138;24.742;2023-05-07T07:33:38;24.10;35.90
80232;DHT22;69541;42.138;24.742;2023-05-07T07:36:05;24.20;35.90
80232;DHT22;69541;42.138;24.742;2023-05-07T07:38:31;24.10;35.80
80232;DHT22;69541;42.138;24.742;2023-05-07T07:40:57;24.20;35.90
80232;DHT22;69541;42.138;24.742;2023-05-07T07:43:23;24.20;35.90
80232;DHT22;69541;42.138;24.742;2023-05-07T07:45:48;24.10;35.80
80232;DHT22;69541;42.138;24.742;2023-05-07T07:48:14;24.10;35.80
80232;DHT22;69541;42.138;24.742;2023-05-07T07:50:40;24.20;35.80
80232;DHT22;69541;42.138;24.742;2023-05-07T07:53:05;24.20;35.80
80232;DHT22;69541;42.138;24.742;2023-05-07T07:55:31;24.10;35.90
80232;DHT22;69541;42.138;24.742;2023-05-07T07:57:57;24.10;35.80
80232;DHT22;69541;42.138;24.742;2023-05-07T08:00:23;24.10;35.80
80232;DHT22;69541;42.138;24.742;2023-05-07T08:02:48;24.10;35.80
80232;DHT22;69541;42.138;24.742;2023-05-07T08:05:14;24.20;35.80
80232;DHT22;69541;42.138;24.742;2023-05-07T08:07:40;24.10;35.80
80232;DHT22;69541;42.138;24.742;2023-05-07T08:10:06;24.10;35.90
80232;DHT22;69541;42.138;24.742;2023-05-07T08:12:32;24.20;35.80
80232;DHT22;69541;42.138;24.742;2023-05-07T08:14:58;24.20;35.80
80232;DHT22;69541;42.138;24.742;2023-05-07T08:17:24;24.20;35.80
80232;DHT22;69541;42.138;24.742;2023-05-07T08:19:49;24.20;35.80
80232;DHT22;69541;42.138;24.742;2023-05-07T08:22:15;24.20;35.80
80232;DHT22;69541;42.138;24.742;2023-05-07T08:24:43;24.20;35.80
80232;DHT22;69541;42.138;24.742;2023-05-07T08:27:08;24.20;35.90
80232;DHT22;69541;42.138;24.742;2023-05-07T08:29:34;24.20;35.90
80232;DHT22;69541;42.138;24.742;2023-05-07T08:32:00;24.20;35.80
80232;DHT22;69541;42.138;24.742;2023-05-07T08:34:25;24.20;35.80
80232;DHT22;69541;42.138;24.742;2023-05-07T08:36:51;24.20;35.70
80232;DHT22;69541;42.138;24.742;2023-05-07T08:39:16;24.20;35.70
80232;DHT22;69541;42.138;24.742;2023-05-07T08:41:45;24.20;35.70
80232;DHT22;69541;42.138;24.742;2023-05-07T08:44:13;24.20;35.70
80232;DHT22;69541;42.138;24.742;2023-05-07T08:46:42;24.20;35.70
80232;DHT22;69541;42.138;24.742;2023-05-07T08:49:09;24.20;35.60
80232;DHT22;69541;42.138;24.742;2023-05-07T08:51:36;24.20;36.70
80232;DHT22;69541;42.138;24.742;2023-05-07T08:54:01;24.20;35.60
80232;DHT22;69541;42.138;24.742;2023-05-07T08:56:27;24.20;35.60
80232;DHT22;69541;42.138;24.742;2023-05-07T08:58:53;24.20;35.60
80232;DHT22;69541;42.138;24.742;2023-05-07T09:01:21;24.20;35.60
80232;DHT22;69541;42.138;24.742;2023-05-07T09:03:49;24.30;35.70
80232;DHT22;69541;42.138;24.742;2023-05-07T09:06:15;24.20;35.60
80232;DHT22;69541;42.138;24.742;2023-05-07T09:08:52;24.20;35.60
80232;DHT22;69541;42.138;24.742;2023-05-07T09:11:22;24.20;35.60
80232;DHT22;69541;42.138;24.742;2023-05-07T09:13:48;24.20;35.60
80232;DHT22;69541;42.138;24.742;2023-05-07T09:16:15;24.20;35.60
80232;DHT22;69541;42.138;24.742;2023-05-07T09:18:44;24.20;35.60
80232;DHT22;69541;42.138;24.742;2023-05-07T09:21:20;24.20;36.70
80232;DHT22;69541;42.138;24.742;2023-05-07T09:23:48;24.20;35.70
80232;DHT22;69541;42.138;24.742;2023-05-07T09:26:14;24.20;35.60
80232;DHT22;69541;42.138;24.742;2023-05-07T09:28:40;24.20;35.70
80232;DHT22;69541;42.138;24.742;2023-05-07T09:31:07;24.20;35.60
80232;DHT22;69541;42.138;24.742;2023-05-07T09:33:33;24.20;35.60
80232;DHT22;69541;42.138;24.742;2023-05-07T09:36:02;24.30;35.70
80232;DHT22;69541;42.138;24.742;2023-05-07T09:38:28;24.30;35.70
80232;DHT22;69541;42.138;24.742;2023-05-07T09:41:11;24.20;35.60
80232;DHT22;69541;42.138;24.742;2023-05-07T09:43:38;24.20;35.60
80232;DHT22;69541;42.138;24.742;2023-05-07T09:46:12;24.20;35.60
80232;DHT22;69541;42.138;24.742;2023-05-07T09:48:39;24.20;35.60
80232;DHT22;69541;42.138;24.742;2023-05-07T09:51:31;24.20;35.60
80232;DHT22;69541;42.138;24.742;2023-05-07T09:54:00;24.30;35.70
80232;DHT22;69541;42.138;24.742;2023-05-07T09:56:29;24.20;35.60
80232;DHT22;69541;42.138;24.742;2023-05-07T09:58:59;24.20;35.70
80232;DHT22;69541;42.138;24.742;2023-05-07T10:01:25;24.20;35.60
80232;DHT22;69541;42.138;24.742;2023-05-07T10:03:52;24.20;35.60
80232;DHT22;69541;42.138;24.742;2023-05-07T10:06:20;24.30;35.60
80232;DHT22;69541;42.138;24.742;2023-05-07T10:08:46;24.30;35.60
80232;DHT22;69541;42.138;24.742;2023-05-07T10:11:12;24.30;35.70
80232;DHT22;69541;42.138;24.742;2023-05-07T10:13:40;24.20;35.60
80232;DHT22;69541;42.138;24.742;2023-05-07T10:16:06;24.20;35.60
80232;DHT22;69541;42.138;24.742;2023-05-07T10:18:33;24.30;35.60
80232;DHT22;69541;42.138;24.742;2023-05-07T10:23:32;24.20;35.60
80232;DHT22;69541;42.138;24.742;2023-05-07T10:26:03;24.20;35.60
80232;DHT22;69541;42.138;24.742;2023-05-07T10:28:31;24.20;35.60
80232;DHT22;69541;42.138;24.742;2023-05-07T10:33:56;24.30;35.60
80232;DHT22;69541;42.138;24.742;2023-05-07T10:36:23;24.20;35.60
80232;DHT22;69541;42.138;24.742;2023-05-07T10:38:50;24.30;35.60
80232;DHT22;69541;42.138;24.742;2023-05-07T10:41:16;24.30;35.60
80232;DHT22;69541;42.138;24.742;2023-05-07T10:43:45;24.30;35.70
80232;DHT22;69541;42.138;24.742;2023-05-07T10:46:20;24.20;35.60
80232;DHT22;69541;42.138;24.742;2023-05-07T10:51:32;24.30;35.70
80232;DHT22;69541;42.138;24.742;2023-05-07T10:56:36;24.30;35.60
80232;DHT22;69541;42.138;24.742;2023-05-07T10:59:38;24.30;35.60
80232;DHT22;69541;42.138;24.742;2023-05-07T11:02:07;24.30;35.50
80232;DHT22;69541;42.138;24.742;2023-05-07T11:04:35;24.30;35.70
80232;DHT22;69541;42.138;24.742;2023-05-07T11:10:01;24.30;35.60
80232;DHT22;69541;42.138;24.742;2023-05-07T11:15:04;24.30;35.70
80232;DHT22;69541;42.138;24.742;2023-05-07T11:17:30;24.20;35.60
80232;DHT22;69541;42.138;24.742;2023-05-07T11:20:00;24.30;35.60
80232;DHT22;69541;42.138;24.742;2023-05-07T11:25:06;24.30;35.50
80232;DHT22;69541;42.138;24.742;2023-05-07T11:27:32;24.30;35.60
80232;DHT22;69541;42.138;24.742;2023-05-07T11:29:58;24.30;35.50
80232;DHT22;69541;42.138;24.742;2023-05-07T11:32:24;24.30;35.50
80232;DHT22;69541;42.138;24.742;2023-05-07T11:35:02;24.30;35.50
80232;DHT22;69541;42.138;24.742;2023-05-07T11:37:28;24.30;35.50
80232;DHT22;69541;42.138;24.742;2023-05-07T11:40:08;24.30;35.50
80232;DHT22;69541;42.138;24.742;2023-05-07T11:42:37;24.30;35.50
80232;DHT22;69541;42.138;24.742;2023-05-07T11:45:05;24.30;35.60
80232;DHT22;69541;42.138;24.742;2023-05-07T11:47:31;24.30;35.70
80232;DHT22;69541;42.138;24.742;2023-05-07T11:50:05;24.30;35.50
80232;DHT22;69541;42.138;24.742;2023-05-07T11:52:31;24.30;35.50
80232;DHT22;69541;42.138;24.742;2023-05-07T11:54:59;24.30;35.50
80232;DHT22;69541;42.138;24.742;2023-05-07T11:57:26;24.30;35.50
80232;DHT22;69541;42.138;24.742;2023-05-07T11:59:59;24.30;35.40
80232;DHT22;69541;42.138;24.742;2023-05-07T12:02:25;24.30;35.40
80232;DHT22;69541;42.138;24.742;2023-05-07T12:04:52;24.30;35.40
80232;DHT22;69541;42.138;24.742;2023-05-07T12:07:17;24.30;35.50
80232;DHT22;69541;42.138;24.742;2023-05-07T12:09:44;24.30;35.50
80232;DHT22;69541;42.138;24.742;2023-05-07T12:12:11;24.30;35.50
80232;DHT22;69541;42.138;24.742;2023-05-07T12:14:41;24.30;36.60
80232;DHT22;69541;42.138;24.742;2023-05-07T12:17:10;24.30;35.50
80232;DHT22;69541;42.138;24.742;2023-05-07T12:19:37;24.30;35.40
80232;DHT22;69541;42.138;24.742;2023-05-07T12:22:03;24.30;35.50
80232;DHT22;69541;42.138;24.742;2023-05-07T12:24:41;24.30;35.50
80232;DHT22;69541;42.138;24.742;2023-05-07T12:27:06;24.30;35.40
80232;DHT22;69541;42.138;24.742;2023-05-07T12:29:32;24.40;35.40
80232;DHT22;69541;42.138;24.742;2023-05-07T12:31:58;24.40;35.50
80232;DHT22;69541;42.138;24.742;2023-05-07T12:34:24;24.40;35.40
80232;DHT22;69541;42.138;24.742;2023-05-07T12:36:49;24.40;35.40
80232;DHT22;69541;42.138;24.742;2023-05-07T12:39:15;24.40;35.40
80232;DHT22;69541;42.138;24.742;2023-05-07T12:41:57;24.40;35.40
80232;DHT22;69541;42.138;24.742;2023-05-07T12:44:30;24.40;35.30
80232;DHT22;69541;42.138;24.742;2023-05-07T12:46:56;24.40;35.40
80232;DHT22;69541;42.138;24.742;2023-05-07T12:49:23;24.40;35.40
80232;DHT22;69541;42.138;24.742;2023-05-07T12:51:50;24.40;35.40
80232;DHT22;69541;42.138;24.742;2023-05-07T12:54:35;24.40;35.40
80232;DHT22;69541;42.138;24.742;2023-05-07T12:57:07;24.40;35.40
80232;DHT22;69541;42.138;24.742;2023-05-07T12:59:36;24.40;35.40
80232;DHT22;69541;42.138;24.742;2023-05-07T13:02:02;24.40;35.40
80232;DHT22;69541;42.138;24.742;2023-05-07T13:04:28;24.40;35.30
80232;DHT22;69541;42.138;24.742;2023-05-07T13:06:54;24.40;35.40
80232;DHT22;69541;42.138;24.742;2023-05-07T13:09:19;24.40;35.30
80232;DHT22;69541;42.138;24.742;2023-05-07T13:11:45;24.40;35.30
80232;DHT22;69541;42.138;24.742;2023-05-07T13:14:11;24.40;35.30
80232;DHT22;69541;42.138;24.742;2023-05-07T13:16:37;24.50;35.40
80232;DHT22;69541;42.138;24.742;2023-05-07T13:19:02;24.50;35.30
80232;DHT22;69541;42.138;24.742;2023-05-07T13:21:29;24.50;35.20
80232;DHT22;69541;42.138;24.742;2023-05-07T13:23:55;24.50;35.20
80232;DHT22;69541;42.138;24.742;2023-05-07T13:26:21;24.50;35.20
80232;DHT22;69541;42.138;24.742;2023-05-07T13:28:47;24.50;35.10
80232;DHT22;69541;42.138;24.742;2023-05-07T13:31:14;24.50;35.20
80232;DHT22;69541;42.138;24.742;2023-05-07T13:33:39;24.50;35.10
80232;DHT22;69541;42.138;24.742;2023-05-07T13:36:05;24.60;35.10
80232;DHT22;69541;42.138;24.742;2023-05-07T13:38:31;24.60;35.00
80232;DHT22;69541;42.138;24.742;2023-05-07T13:40:56;24.70;35.00
80232;DHT22;69541;42.138;24.742;2023-05-07T13:43:22;24.60;35.00
80232;DHT22;69541;42.138;24.742;2023-05-07T13:45:48;24.70;35.00
80232;DHT22;69541;42.138;24.742;2023-05-07T13:48:13;24.70;35.00
80232;DHT22;69541;42.138;24.742;2023-05-07T13:50:39;24.70;35.00
80232;DHT22;69541;42.138;24.742;2023-05-07T13:53:05;24.70;35.00
80232;DHT22;69541;42.138;24.742;2023-05-07T13:55:31;24.70;35.00
80232;DHT22;69541;42.138;24.742;2023-05-07T13:57:59;24.70;35.00
80232;DHT22;69541;42.138;24.742;2023-05-07T14:00:26;24.70;34.90
80232;DHT22;69541;42.138;24.742;2023-05-07T14:02:52;24.70;34.90
80232;DHT22;69541;42.138;24.742;2023-05-07T14:05:18;24.80;35.00
80232;DHT22;69541;42.138;24.742;2023-05-07T14:07:44;24.80;34.90
80232;DHT22;69541;42.138;24.742;2023-05-07T14:10:10;24.80;34.90
80232;DHT22;69541;42.138;24.742;2023-05-07T14:12:36;24.80;34.90
80232;DHT22;69541;42.138;24.742;2023-05-07T14:15:02;24.80;34.80
80232;DHT22;69541;42.138;24.742;2023-05-07T14:17:28;24.90;34.80
80232;DHT22;69541;42.138;24.742;2023-05-07T14:19:54;24.90;34.90
80232;DHT22;69541;42.138;24.742;2023-05-07T14:22:23;24.90;34.80
80232;DHT22;69541;42.138;24.742;2023-05-07T14:24:49;24.90;34.80
80232;DHT22;69541;42.138;24.742;2023-05-07T14:27:15;24.90;34.80
80232;DHT22;69541;42.138;24.742;2023-05-07T14:29:41;24.90;34.70
80232;DHT22;69541;42.138;24.742;2023-05-07T14:32:07;24.90;34.60
80232;DHT22;69541;42.138;24.742;2023-05-07T14:34:33;25.00;34.70
80232;DHT22;69541;42.138;24.742;2023-05-07T14:37:00;25.00;34.60
80232;DHT22;69541;42.138;24.742;2023-05-07T14:39:25;25.00;34.60
80232;DHT22;69541;42.138;24.742;2023-05-07T14:41:51;25.00;34.60
80232;DHT22;69541;42.138;24.742;2023-05-07T14:44:20;25.10;34.60
80232;DHT22;69541;42.138;24.742;2023-05-07T14:46:45;25.00;34.50
80232;DHT22;69541;42.138;24.742;2023-05-07T14:49:11;25.10;34.60
80232;DHT22;69541;42.138;24.742;2023-05-07T14:51:43;25.10;34.60
80232;DHT22;69541;42.138;24.742;2023-05-07T14:54:09;25.10;34.60
80232;DHT22;69541;42.138;24.742;2023-05-07T14:56:35;25.10;34.50
80232;DHT22;69541;42.138;24.742;2023-05-07T14:59:02;25.10;34.50
80232;DHT22;69541;42.138;24.742;2023-05-07T15:01:28;25.10;34.60
80232;DHT22;69541;42.138;24.742;2023-05-07T15:03:54;25.10;34.40
80232;DHT22;69541;42.138;24.742;2023-05-07T15:06:21;25.10;34.40
80232;DHT22;69541;42.138;24.742;2023-05-07T15:08:46;25.10;34.40
80232;DHT22;69541;42.138;24.742;2023-05-07T15:11:12;25.10;34.40
80232;DHT22;69541;42.138;24.742;2023-05-07T15:13:38;25.10;34.40
80232;DHT22;69541;42.138;24.742;2023-05-07T15:16:03;25.10;34.50
80232;DHT22;69541;42.138;24.742;2023-05-07T15:18:29;25.10;34.50
80232;DHT22;69541;42.138;24.742;2023-05-07T15:20:55;25.10;34.50
80232;DHT22;69541;42.138;24.742;2023-05-07T15:23:22;25.10;34.50
80232;DHT22;69541;42.138;24.742;2023-05-07T15:25:48;25.10;34.60
80232;DHT22;69541;42.138;24.742;2023-05-07T15:28:13;25.10;34.50
80232;DHT22;69541;42.138;24.742;2023-05-07T15:30:39;25.10;34.50